Time;durP1;ratioP1;P1;durP2;ratioP2;P2;SDS_P1;SDS_P2;PMS_P1;PMS_P2;Temp;Humidity;BMP_temperature;BMP_pressure;BME280_temperature;BME280_humidity;BME280_pressure;Samples;Min_cycle;Max_cycle;Signal;HPM_P1;HPM_P2
2020/12/31 00:01:25;;;;;;;1.27;1.17;;;9.50;81.80;;;;;;5110538;28;20043;-42
2020/12/31 00:03:52;;;;;;;1.27;1.13;;;9.50;81.80;;;;;;5111050;28;20059;-43
2020/12/31 00:06:18;;;;;;;1.60;1.50;;;9.50;81.80;;;;;;5112651;28;20126;-42
2020/12/31 00:08:44;;;;;;;1.52;1.30;;;9.50;81.80;;;;;;5109917;28;20499;-42
2020/12/31 00:11:12;;;;;;;1.20;1.10;;;9.50;81.80;;;;;;5110966;28;20052;-47
2020/12/31 00:13:38;;;;;;;2.40;1.60;;;9.50;81.80;;;;;;5114017;28;20092;-43
2020/12/31 00:16:04;;;;;;;2.00;1.40;;;9.50;81.80;;;;;;5116826;28;20100;-47
2020/12/31 00:18:30;;;;;;;1.35;1.20;;;9.50;82.40;;;;;;5114697;28;20064;-42
2020/12/31 00:20:55;;;;;;;1.38;1.27;;;9.50;81.80;;;;;;5113648;28;20132;-45
2020/12/31 00:23:21;;;;;;;1.52;1.27;;;9.50;81.80;;;;;;5116807;28;20504;-47
2020/12/31 00:25:49;;;;;;;1.45;1.35;;;9.50;81.80;;;;;;5115717;28;20105;-46
2020/12/31 00:28:16;;;;;;;1.77;1.23;;;9.50;81.80;;;;;;5110821;28;20403;-43
2020/12/31 00:30:44;;;;;;;2.25;1.52;;;9.50;81.80;;;;;;5115864;28;20040;-44
2020/12/31 00:33:15;;;;;;;2.05;1.60;;;9.50;81.80;;;;;;5115713;28;20134;-46
2020/12/31 00:35:42;;;;;;;1.95;1.55;;;9.50;81.80;;;;;;5114551;28;20047;-45
2020/12/31 00:38:08;;;;;;;2.05;1.40;;;9.50;81.80;;;;;;5115817;28;20092;-43
2020/12/31 00:40:33;;;;;;;1.95;1.45;;;9.50;81.80;;;;;;5116368;28;20043;-49
2020/12/31 00:43:00;;;;;;;1.63;1.40;;;9.50;81.80;;;;;;5115479;28;20073;-45
2020/12/31 00:45:27;;;;;;;3.35;1.77;;;9.50;81.80;;;;;;5116101;28;20126;-45
2020/12/31 00:47:53;;;;;;;2.22;1.83;;;9.50;81.80;;;;;;5115689;28;20048;-45
2020/12/31 00:50:18;;;;;;;1.80;1.60;;;9.50;81.80;;;;;;5115566;28;20098;-44
2020/12/31 00:52:44;;;;;;;2.15;1.65;;;9.50;81.80;;;;;;5114074;28;20056;-44
2020/12/31 00:55:09;;;;;;;2.22;1.67;;;9.50;81.80;;;;;;5115970;28;20441;-44
2020/12/31 00:57:36;;;;;;;1.77;1.50;;;9.50;81.80;;;;;;5114200;28;20070;-45
2020/12/31 01:00:05;;;;;;;2.15;1.75;;;9.50;81.80;;;;;;5113594;28;20047;-43
2020/12/31 01:02:31;;;;;;;2.33;1.80;;;9.50;81.80;;;;;;5115034;28;20036;-42
2020/12/31 01:04:56;;;;;;;1.92;1.35;;;9.50;81.80;;;;;;5113033;28;20047;-44
2020/12/31 01:07:23;;;;;;;2.95;1.70;;;9.50;81.80;;;;;;5115784;28;20050;-43
2020/12/31 01:09:49;;;;;;;1.90;1.55;;;9.50;82.50;;;;;;5114425;28;20475;-42
2020/12/31 01:12:15;;;;;;;2.17;1.58;;;9.50;81.80;;;;;;5114484;28;20044;-40
2020/12/31 01:14:40;;;;;;;2.22;1.80;;;9.50;81.80;;;;;;5111744;28;20048;-42
2020/12/31 01:17:06;;;;;;;2.35;1.85;;;9.50;81.80;;;;;;5114792;28;20475;-41
2020/12/31 01:19:32;;;;;;;2.35;1.83;;;9.50;81.80;;;;;;5115490;27;20078;-40
2020/12/31 01:21:58;;;;;;;2.78;2.00;;;9.50;81.80;;;;;;5113682;28;20110;-42
2020/12/31 01:24:23;;;;;;;2.30;2.10;;;9.50;81.80;;;;;;5113480;28;20130;-42
2020/12/31 01:26:50;;;;;;;2.92;2.10;;;9.50;81.80;;;;;;5115253;28;20113;-42
2020/12/31 01:29:15;;;;;;;1.85;1.63;;;9.50;81.80;;;;;;5112133;28;20039;-42
2020/12/31 01:31:46;;;;;;;2.38;2.00;;;9.50;81.80;;;;;;5114778;28;20047;-42
2020/12/31 01:34:13;;;;;;;2.40;2.20;;;9.50;81.80;;;;;;5113653;28;20055;-41
2020/12/31 01:36:38;;;;;;;2.88;2.10;;;9.50;81.80;;;;;;5113756;28;20057;-44
2020/12/31 01:39:04;;;;;;;2.22;1.90;;;9.50;81.80;;;;;;5110791;28;20069;-42
2020/12/31 01:41:30;;;;;;;2.72;2.30;;;9.50;81.80;;;;;;5114381;28;20048;-41
2020/12/31 01:44:09;;;;;;;3.35;2.45;;;9.40;81.80;;;;;;5115113;28;20591;-43
2020/12/31 01:46:37;;;;;;;3.22;2.40;;;9.50;81.80;;;;;;5111788;28;20104;-43
2020/12/31 01:49:06;;;;;;;2.72;2.10;;;9.40;81.80;;;;;;5114827;28;20093;-43
2020/12/31 01:51:34;;;;;;;2.97;2.10;;;9.50;81.80;;;;;;5114512;28;20044;-39
2020/12/31 01:54:00;;;;;;;3.08;2.25;;;9.50;81.80;;;;;;5113896;28;20043;-42
2020/12/31 01:56:29;;;;;;;3.78;2.70;;;9.50;81.80;;;;;;5112479;28;20051;-41
2020/12/31 01:58:55;;;;;;;4.00;2.40;;;9.40;81.80;;;;;;5111333;28;20051;-44
2020/12/31 02:01:22;;;;;;;3.05;2.42;;;9.40;81.80;;;;;;5111625;28;20047;-42
2020/12/31 02:03:49;;;;;;;3.25;2.38;;;9.50;81.80;;;;;;5110997;28;20540;-42
2020/12/31 02:06:15;;;;;;;2.92;2.13;;;9.50;81.80;;;;;;5113061;28;20067;-43
2020/12/31 02:08:43;;;;;;;2.72;2.22;;;9.40;81.80;;;;;;5114054;28;20472;-43
2020/12/31 02:11:11;;;;;;;3.83;2.75;;;9.50;81.80;;;;;;5112142;28;20079;-44
2020/12/31 02:13:36;;;;;;;3.58;2.72;;;9.50;81.90;;;;;;5113884;28;20490;-42
2020/12/31 02:16:03;;;;;;;2.88;2.42;;;9.50;81.80;;;;;;5113684;28;20082;-45
2020/12/31 02:18:28;;;;;;;3.58;2.63;;;9.50;81.90;;;;;;5113619;28;20088;-42
2020/12/31 02:20:55;;;;;;;4.25;3.05;;;9.40;81.80;;;;;;5114266;28;20403;-43
2020/12/31 02:23:21;;;;;;;2.50;2.30;;;9.50;81.80;;;;;;5113511;28;20047;-44
2020/12/31 02:25:47;;;;;;;3.08;2.40;;;9.40;81.90;;;;;;5111295;28;20168;-42
2020/12/31 02:28:12;;;;;;;3.33;2.85;;;9.50;81.90;;;;;;5112707;28;20044;-42
2020/12/31 02:30:38;;;;;;;3.25;2.42;;;9.40;81.80;;;;;;5113918;28;20047;-44
2020/12/31 02:33:04;;;;;;;3.72;2.65;;;9.40;81.80;;;;;;5112897;28;20049;-46
2020/12/31 02:35:30;;;;;;;4.25;3.00;;;9.40;81.90;;;;;;5112149;28;20402;-42
2020/12/31 02:37:55;;;;;;;3.63;2.72;;;9.50;81.90;;;;;;5111610;28;20051;-41
2020/12/31 02:40:21;;;;;;;3.85;3.20;;;9.50;81.80;;;;;;5113565;28;20067;-44
2020/12/31 02:42:47;;;;;;;3.10;2.67;;;9.50;81.80;;;;;;5112303;28;20075;-42
2020/12/31 02:45:12;;;;;;;4.35;3.08;;;9.40;81.80;;;;;;5111770;28;20089;-45
2020/12/31 02:47:39;;;;;;;5.38;3.42;;;9.50;81.90;;;;;;5113811;28;20040;-43
2020/12/31 02:50:05;;;;;;;3.88;2.97;;;9.40;81.80;;;;;;5112740;28;20040;-43
2020/12/31 02:52:31;;;;;;;3.78;2.67;;;9.40;81.80;;;;;;5113674;28;20053;-45
2020/12/31 02:54:56;;;;;;;3.90;2.58;;;9.40;81.80;;;;;;5111992;28;20051;-42
2020/12/31 02:57:22;;;;;;;3.92;2.97;;;9.40;81.80;;;;;;5112902;28;20506;-43
2020/12/31 02:59:47;;;;;;;3.28;2.50;;;9.40;81.80;;;;;;5113217;28;20040;-40
2020/12/31 03:02:13;;;;;;;3.65;2.85;;;9.50;81.90;;;;;;5112636;28;20043;-45
2020/12/31 03:04:39;;;;;;;4.28;3.00;;;9.40;81.90;;;;;;5111068;28;20067;-42
2020/12/31 03:07:04;;;;;;;3.85;2.60;;;9.50;81.80;;;;;;5110214;28;20071;-42
2020/12/31 03:09:30;;;;;;;3.40;3.10;;;9.40;81.80;;;;;;5113380;28;20051;-42
2020/12/31 03:11:56;;;;;;;3.85;2.97;;;9.50;81.80;;;;;;5112105;28;20039;-43
2020/12/31 03:14:21;;;;;;;3.42;2.83;;;9.40;81.80;;;;;;5112689;28;20137;-44
2020/12/31 03:16:47;;;;;;;3.00;2.35;;;9.50;81.80;;;;;;5113142;28;20114;-42
2020/12/31 03:19:13;;;;;;;4.45;3.15;;;9.40;81.80;;;;;;5112297;28;20047;-43
2020/12/31 03:21:38;;;;;;;3.60;2.90;;;9.40;81.80;;;;;;5111712;28;20044;-42
2020/12/31 03:24:04;;;;;;;3.50;2.85;;;9.40;81.80;;;;;;5111679;28;20048;-42
2020/12/31 03:26:29;;;;;;;3.88;3.17;;;9.50;81.80;;;;;;5112496;28;20134;-44
2020/12/31 03:28:55;;;;;;;3.67;2.95;;;9.40;81.80;;;;;;5111776;28;20124;-42
2020/12/31 03:31:21;;;;;;;4.30;3.30;;;9.40;81.80;;;;;;5112090;28;20480;-41
2020/12/31 03:33:46;;;;;;;3.88;2.97;;;9.50;81.90;;;;;;5112115;28;20437;-42
2020/12/31 03:36:12;;;;;;;3.63;3.00;;;9.40;81.80;;;;;;5112190;28;20046;-42
2020/12/31 03:38:38;;;;;;;4.20;3.22;;;9.40;81.90;;;;;;5113229;28;20043;-43
2020/12/31 03:41:04;;;;;;;3.83;3.10;;;9.50;81.90;;;;;;5112199;28;20123;-42
2020/12/31 03:43:29;;;;;;;4.57;2.92;;;9.40;81.80;;;;;;5112118;28;20073;-42
2020/12/31 03:45:55;;;;;;;4.32;3.05;;;9.40;81.80;;;;;;5111943;28;20044;-42
2020/12/31 03:48:21;;;;;;;4.28;3.45;;;9.40;81.80;;;;;;5112519;28;20511;-43
2020/12/31 03:50:46;;;;;;;3.85;3.10;;;9.40;81.80;;;;;;5112580;28;20058;-45
2020/12/31 03:53:12;;;;;;;3.45;3.13;;;9.50;81.80;;;;;;5112810;28;20104;-44
2020/12/31 03:55:38;;;;;;;4.32;3.38;;;9.50;81.80;;;;;;5112772;28;20040;-44
2020/12/31 03:58:03;;;;;;;3.75;3.00;;;9.40;81.80;;;;;;5108413;28;20047;-42
2020/12/31 04:00:29;;;;;;;3.88;2.80;;;9.40;81.80;;;;;;5112833;28;20123;-46
2020/12/31 04:02:55;;;;;;;3.95;3.13;;;9.40;81.80;;;;;;5109954;28;20403;-42
2020/12/31 04:05:20;;;;;;;3.50;2.78;;;9.50;81.80;;;;;;5111067;28;20373;-42
2020/12/31 04:07:46;;;;;;;3.70;3.03;;;9.50;81.80;;;;;;5111969;28;20048;-42
2020/12/31 04:10:12;;;;;;;3.78;2.85;;;9.40;81.80;;;;;;5111706;28;20059;-40
2020/12/31 04:12:37;;;;;;;3.92;3.00;;;9.50;81.80;;;;;;5110960;28;20046;-45
2020/12/31 04:15:03;;;;;;;3.72;3.08;;;9.40;81.80;;;;;;5111857;28;20071;-45
2020/12/31 04:17:29;;;;;;;4.10;3.65;;;9.40;81.80;;;;;;5112192;28;20417;-47
2020/12/31 04:19:55;;;;;;;3.95;3.15;;;9.40;81.80;;;;;;5112018;28;20105;-46
2020/12/31 04:22:20;;;;;;;4.22;3.05;;;9.50;81.80;;;;;;5112466;28;20046;-45
2020/12/31 04:24:46;;;;;;;4.20;3.25;;;9.40;81.80;;;;;;5109077;28;20051;-41
2020/12/31 04:27:12;;;;;;;3.55;2.83;;;9.40;81.80;;;;;;5112038;28;20059;-42
2020/12/31 04:29:38;;;;;;;4.38;3.25;;;9.50;81.90;;;;;;5111551;28;20050;-42
2020/12/31 04:32:03;;;;;;;4.55;3.30;;;9.40;82.40;;;;;;5111261;28;20088;-42
2020/12/31 04:34:29;;;;;;;3.97;3.00;;;9.40;81.80;;;;;;5112560;28;20051;-42
2020/12/31 04:36:55;;;;;;;3.33;2.50;;;9.40;81.80;;;;;;5110956;28;20047;-42
2020/12/31 04:39:21;;;;;;;4.25;2.92;;;9.40;81.80;;;;;;5112403;28;20091;-43
2020/12/31 04:41:47;;;;;;;3.47;2.97;;;9.40;81.80;;;;;;5111403;28;20067;-45
2020/12/31 04:44:15;;;;;;;4.10;3.00;;;9.40;81.80;;;;;;5112016;28;20093;-44
2020/12/31 04:46:42;;;;;;;4.57;3.30;;;9.40;81.80;;;;;;5108558;28;20035;-44
2020/12/31 04:49:18;;;;;;;3.13;2.50;;;9.40;81.80;;;;;;5109716;28;20047;-44
2020/12/31 04:51:47;;;;;;;3.58;2.88;;;9.50;81.80;;;;;;5112204;28;20048;-43
2020/12/31 04:54:13;;;;;;;3.53;2.70;;;9.50;81.80;;;;;;5110943;28;20051;-43
2020/12/31 04:56:39;;;;;;;3.63;2.90;;;9.40;81.80;;;;;;5110640;28;20466;-46
2020/12/31 04:59:06;;;;;;;4.07;3.28;;;9.40;81.80;;;;;;5112082;28;20134;-44
2020/12/31 05:01:32;;;;;;;3.53;2.83;;;9.40;81.80;;;;;;5115367;27;20070;-44
2020/12/31 05:03:58;;;;;;;3.75;3.15;;;9.40;81.80;;;;;;5115826;28;20067;-43
2020/12/31 05:06:26;;;;;;;4.03;2.80;;;9.40;81.80;;;;;;5115154;28;20517;-45
2020/12/31 05:08:52;;;;;;;3.15;2.85;;;9.40;81.80;;;;;;5114275;28;20039;-41
2020/12/31 05:11:18;;;;;;;3.15;2.55;;;9.50;81.80;;;;;;5113740;28;20085;-43
2020/12/31 05:13:49;;;;;;;3.83;3.03;;;9.40;81.80;;;;;;5115306;28;20578;-44
2020/12/31 05:16:29;;;;;;;3.45;2.88;;;9.40;81.80;;;;;;5115110;28;20043;-42
2020/12/31 05:18:56;;;;;;;3.95;3.10;;;9.40;81.80;;;;;;5113061;28;20067;-42
2020/12/31 05:21:21;;;;;;;3.10;2.55;;;9.40;81.80;;;;;;5114856;27;20055;-41
2020/12/31 05:23:47;;;;;;;4.30;2.65;;;9.40;81.80;;;;;;5111956;28;20048;-44
2020/12/31 05:26:29;;;;;;;3.80;2.88;;;9.40;81.80;;;;;;5115083;28;20055;-45
2020/12/31 05:28:55;;;;;;;3.08;2.38;;;9.40;81.80;;;;;;5111538;28;20046;-45
2020/12/31 05:31:24;;;;;;;3.00;2.53;;;9.40;81.80;;;;;;5114494;28;20074;-42
2020/12/31 05:33:49;;;;;;;3.22;2.53;;;9.40;81.80;;;;;;5112654;28;20043;-46
2020/12/31 05:36:22;;;;;;;2.92;2.53;;;9.40;81.80;;;;;;5114766;28;20065;-43
2020/12/31 05:38:57;;;;;;;3.55;2.85;;;9.40;81.80;;;;;;5111256;28;20044;-43
2020/12/31 05:41:34;;;;;;;2.97;2.55;;;9.40;81.80;;;;;;5114382;28;20437;-45
2020/12/31 05:44:05;;;;;;;2.97;2.55;;;9.40;81.80;;;;;;5114114;28;20124;-43
2020/12/31 05:46:31;;;;;;;3.28;2.70;;;9.50;81.80;;;;;;5112476;28;20118;-46
2020/12/31 05:49:05;;;;;;;3.10;2.60;;;9.40;81.80;;;;;;5113799;28;20146;-42
2020/12/31 05:51:41;;;;;;;2.53;2.22;;;9.40;81.80;;;;;;5112298;28;20044;-44
2020/12/31 05:54:12;;;;;;;2.92;2.60;;;9.40;81.80;;;;;;5114209;27;20074;-43
2020/12/31 05:56:42;;;;;;;3.30;2.60;;;9.40;81.80;;;;;;5114474;28;20399;-42
2020/12/31 05:59:25;;;;;;;3.58;2.50;;;9.40;82.40;;;;;;5112030;28;20450;-42
2020/12/31 06:02:01;;;;;;;3.42;2.75;;;9.40;81.80;;;;;;5111034;28;20120;-44
2020/12/31 06:04:30;;;;;;;3.17;2.55;;;9.40;81.80;;;;;;5113866;28;20085;-41
2020/12/31 06:07:00;;;;;;;3.17;2.63;;;9.40;81.80;;;;;;5114728;28;20396;-42
2020/12/31 06:09:33;;;;;;;2.90;2.53;;;9.40;81.80;;;;;;5113646;28;20051;-43
2020/12/31 06:12:08;;;;;;;3.22;2.55;;;9.40;81.80;;;;;;5112376;28;20055;-43
2020/12/31 06:14:35;;;;;;;3.17;2.55;;;9.40;81.80;;;;;;5112614;28;20043;-42
2020/12/31 06:17:03;;;;;;;3.33;2.58;;;9.40;81.80;;;;;;5113279;28;20036;-41
2020/12/31 06:19:39;;;;;;;3.60;2.58;;;9.40;81.80;;;;;;5110933;28;20050;-42
2020/12/31 06:22:09;;;;;;;3.00;2.70;;;9.40;81.80;;;;;;5112533;28;20510;-44
2020/12/31 06:24:47;;;;;;;3.42;2.63;;;9.40;81.80;;;;;;5114457;28;20047;-42
2020/12/31 06:27:15;;;;;;;3.40;2.63;;;9.40;81.80;;;;;;5107226;28;20066;-45
2020/12/31 06:29:40;;;;;;;2.65;2.30;;;9.40;81.80;;;;;;5114357;28;20043;-43
2020/12/31 06:32:29;;;;;;;2.65;2.30;;;9.40;81.80;;;;;;5112364;28;20051;-43
2020/12/31 06:35:06;;;;;;;3.58;2.42;;;9.40;81.80;;;;;;5110930;28;20131;-43
2020/12/31 06:37:32;;;;;;;3.03;2.47;;;9.40;81.80;;;;;;5112190;28;20047;-43
2020/12/31 06:40:24;;;;;;;4.35;2.40;;;9.40;81.80;;;;;;5113339;28;20050;-43
2020/12/31 06:43:11;;;;;;;3.60;2.63;;;9.40;81.80;;;;;;5109972;28;20494;-43
2020/12/31 06:45:43;;;;;;;3.10;2.58;;;9.40;81.80;;;;;;5112359;28;20448;-43
2020/12/31 06:48:27;;;;;;;3.15;2.65;;;9.40;81.80;;;;;;5110043;28;20514;-43
2020/12/31 06:51:02;;;;;;;3.10;2.58;;;9.40;81.80;;;;;;5110956;28;20044;-45
2020/12/31 06:53:35;;;;;;;4.03;2.70;;;9.40;81.80;;;;;;5109841;28;20039;-45
2020/12/31 06:56:05;;;;;;;2.42;2.22;;;9.40;81.80;;;;;;5113951;28;20070;-43
2020/12/31 06:58:31;;;;;;;2.80;2.42;;;9.40;81.80;;;;;;5110585;28;20065;-42
2020/12/31 07:00:57;;;;;;;3.17;2.80;;;9.40;81.80;;;;;;5112676;28;20043;-45
2020/12/31 07:03:53;;;;;;;2.33;2.13;;;9.40;81.80;;;;;;5111276;28;20048;-41
2020/12/31 07:06:25;;;;;;;3.22;2.60;;;9.40;81.80;;;;;;5069847;28;20456;-42
2020/12/31 07:08:55;;;;;;;3.00;2.60;;;9.40;81.80;;;;;;5068342;28;20071;-42
2020/12/31 07:11:38;;;;;;;3.08;2.60;;;9.40;81.80;;;;;;5066150;28;20052;-41
2020/12/31 07:14:18;;;;;;;2.63;2.40;;;9.40;81.80;;;;;;5064937;28;20048;-40
2020/12/31 07:16:46;;;;;;;3.15;2.58;;;9.40;81.80;;;;;;5068710;28;20123;-42
2020/12/31 07:19:13;;;;;;;3.05;2.55;;;9.40;81.80;;;;;;5066437;28;20053;-43
2020/12/31 07:21:38;;;;;;;3.00;2.33;;;9.40;81.80;;;;;;5069132;28;20083;-44
2020/12/31 07:24:23;;;;;;;3.88;2.72;;;9.40;81.80;;;;;;5078300;28;20076;-42
2020/12/31 07:26:50;;;;;;;3.40;2.50;;;9.40;81.80;;;;;;5067190;28;20140;-42
2020/12/31 07:29:28;;;;;;;3.30;2.70;;;9.40;81.80;;;;;;5069511;28;20124;-44
2020/12/31 07:31:54;;;;;;;3.08;2.60;;;9.40;81.80;;;;;;5067914;28;20071;-42
2020/12/31 07:34:27;;;;;;;5.13;2.90;;;9.40;81.90;;;;;;5070003;28;20057;-40
2020/12/31 07:37:01;;;;;;;3.22;2.53;;;9.40;81.80;;;;;;5068296;28;20060;-40
2020/12/31 07:39:27;;;;;;;2.97;2.70;;;9.40;81.80;;;;;;5069782;28;20106;-42
2020/12/31 07:42:17;;;;;;;4.13;3.00;;;9.40;81.80;;;;;;5074675;28;20048;-44
2020/12/31 07:44:55;;;;;;;3.20;2.90;;;9.40;81.80;;;;;;5110729;28;20436;-43
2020/12/31 07:47:23;;;;;;;3.17;2.42;;;9.40;81.80;;;;;;5108397;28;20044;-42
2020/12/31 07:49:52;;;;;;;3.10;2.42;;;9.40;81.80;;;;;;5108958;28;20118;-43
2020/12/31 07:52:19;;;;;;;3.38;2.50;;;9.40;81.90;;;;;;5111279;28;20085;-41
2020/12/31 07:54:45;;;;;;;3.35;2.60;;;9.40;81.80;;;;;;5112314;28;20048;-43
2020/12/31 07:57:12;;;;;;;3.13;2.78;;;9.40;81.80;;;;;;5109150;28;20118;-43
2020/12/31 07:59:45;;;;;;;3.95;2.50;;;9.40;82.50;;;;;;5110622;28;20047;-46
2020/12/31 08:02:15;;;;;;;3.50;2.72;;;9.40;81.80;;;;;;5109801;28;20077;-45
2020/12/31 08:04:40;;;;;;;3.25;2.83;;;9.40;81.80;;;;;;5110798;28;20525;-46
2020/12/31 08:07:16;;;;;;;3.22;2.72;;;9.40;81.80;;;;;;5112135;28;20143;-45
2020/12/31 08:09:43;;;;;;;3.70;2.90;;;9.40;81.80;;;;;;5112368;28;20064;-46
2020/12/31 08:12:10;;;;;;;3.15;2.85;;;9.40;81.80;;;;;;5109910;28;20076;-46
2020/12/31 08:14:41;;;;;;;7.43;5.90;;;9.40;81.80;;;;;;5110880;28;20043;-49
2020/12/31 08:17:06;;;;;;;7.03;4.78;;;9.30;81.30;;;;;;5113159;28;20044;-47
2020/12/31 08:19:33;;;;;;;7.78;5.65;;;9.20;81.50;;;;;;5112894;28;20124;-50
2020/12/31 08:22:06;;;;;;;6.90;5.47;;;9.20;81.50;;;;;;5112908;28;20047;-48
2020/12/31 08:24:34;;;;;;;8.32;5.60;;;9.20;81.50;;;;;;5112614;28;20092;-45
2020/12/31 08:27:01;;;;;;;8.13;5.75;;;9.30;81.60;;;;;;5111740;28;20062;-46
2020/12/31 08:29:33;;;;;;;7.57;5.65;;;9.30;81.60;;;;;;5105273;28;20043;-50
2020/12/31 08:32:04;;;;;;;7.63;5.53;;;9.30;81.60;;;;;;5092758;28;20048;-47
2020/12/31 08:34:36;;;;;;;6.20;4.93;;;9.30;81.60;;;;;;5094959;28;20044;-46
2020/12/31 08:37:03;;;;;;;8.23;6.38;;;9.30;81.60;;;;;;5097827;28;20044;-50
2020/12/31 08:39:29;;;;;;;7.28;5.70;;;9.30;81.60;;;;;;5096357;28;20070;-44
2020/12/31 08:41:58;;;;;;;8.32;6.22;;;9.30;81.60;;;;;;5116563;28;20051;-48
2020/12/31 08:44:25;;;;;;;7.97;5.75;;;9.30;81.60;;;;;;5116655;28;20050;-49
2020/12/31 08:46:51;;;;;;;8.70;5.82;;;9.30;81.60;;;;;;5114942;28;20109;-48
2020/12/31 08:49:27;;;;;;;7.93;5.45;;;9.30;81.60;;;;;;5116400;28;20052;-46
2020/12/31 08:51:53;;;;;;;10.00;8.02;;;9.30;81.50;;;;;;5116046;28;20075;-46
2020/12/31 08:54:19;;;;;;;10.52;7.65;;;9.20;80.90;;;;;;5116452;28;20070;-45
2020/12/31 08:56:45;;;;;;;9.43;7.20;;;9.10;81.10;;;;;;5114648;27;20059;-46
2020/12/31 08:59:11;;;;;;;10.75;7.78;;;9.10;81.30;;;;;;5116393;28;20043;-45
2020/12/31 09:01:42;;;;;;;12.48;8.10;;;9.10;81.30;;;;;;5116379;28;20055;-49
2020/12/31 09:04:20;;;;;;;10.77;7.68;;;9.10;81.40;;;;;;5116428;28;20061;-45
2020/12/31 09:06:52;;;;;;;10.95;7.95;;;9.10;81.30;;;;;;5109181;28;20078;-42
2020/12/31 09:09:22;;;;;;;10.25;7.95;;;9.20;81.40;;;;;;5109884;28;20072;-40
2020/12/31 09:11:58;;;;;;;10.95;7.85;;;9.10;81.40;;;;;;5102691;28;20052;-52
2020/12/31 09:14:25;;;;;;;11.10;8.10;;;9.20;81.40;;;;;;5113853;28;20555;-46
2020/12/31 09:16:51;;;;;;;9.15;7.32;;;9.10;81.40;;;;;;5113545;28;20044;-42
2020/12/31 09:19:17;;;;;;;10.13;8.00;;;9.10;81.40;;;;;;5102007;28;20081;-40
2020/12/31 09:21:43;;;;;;;9.38;7.43;;;9.10;81.40;;;;;;5114322;28;20507;-41
2020/12/31 09:24:13;;;;;;;10.88;8.02;;;9.20;81.40;;;;;;5114785;28;20047;-43
2020/12/31 09:26:39;;;;;;;10.18;7.55;;;9.20;81.50;;;;;;5114465;28;20503;-41
2020/12/31 09:29:08;;;;;;;10.02;7.20;;;9.20;81.50;;;;;;5099937;28;20047;-46
2020/12/31 09:31:37;;;;;;;11.23;8.00;;;9.20;81.50;;;;;;5097168;28;20051;-45
2020/12/31 09:34:03;;;;;;;11.40;7.82;;;9.20;81.50;;;;;;5107316;28;20036;-42
2020/12/31 09:36:28;;;;;;;11.05;8.40;;;9.20;81.50;;;;;;5107359;28;20042;-41
2020/12/31 09:38:54;;;;;;;10.57;8.05;;;9.20;81.50;;;;;;5111544;28;20046;-42
2020/12/31 09:41:20;;;;;;;9.27;7.82;;;9.20;82.10;;;;;;5112575;28;20515;-40
2020/12/31 09:43:47;;;;;;;9.88;7.03;;;9.20;81.50;;;;;;5112279;28;20062;-43
2020/12/31 09:46:22;;;;;;;9.40;7.18;;;9.20;81.50;;;;;;5113167;28;20499;-41
2020/12/31 09:48:48;;;;;;;10.75;7.72;;;9.20;81.60;;;;;;5112853;28;20047;-42
2020/12/31 09:51:15;;;;;;;10.02;7.30;;;9.20;81.60;;;;;;5101262;28;20040;-43
2020/12/31 09:53:41;;;;;;;8.52;6.88;;;9.20;81.60;;;;;;5114537;28;20496;-42
2020/12/31 09:56:07;;;;;;;10.18;7.72;;;9.30;81.70;;;;;;5114788;28;20129;-43
2020/12/31 09:58:33;;;;;;;10.20;7.63;;;9.20;81.60;;;;;;5114324;28;20048;-43
2020/12/31 10:01:00;;;;;;;9.60;7.68;;;9.20;81.60;;;;;;5112838;28;20134;-40
2020/12/31 10:03:26;;;;;;;10.93;7.90;;;9.20;81.60;;;;;;5097436;28;20048;-41
2020/12/31 10:05:52;;;;;;;9.95;7.85;;;9.20;81.60;;;;;;5094130;28;20097;-40
2020/12/31 10:08:19;;;;;;;10.10;7.60;;;9.20;81.60;;;;;;5093834;28;20056;-41
2020/12/31 10:10:45;;;;;;;10.50;7.38;;;9.20;81.60;;;;;;5094151;28;20048;-44
2020/12/31 10:13:10;;;;;;;9.98;7.20;;;9.20;81.60;;;;;;5095211;28;20496;-41
2020/12/31 10:15:36;;;;;;;9.60;7.15;;;9.20;81.60;;;;;;5093951;28;20048;-43
2020/12/31 10:18:02;;;;;;;8.88;7.15;;;9.20;81.60;;;;;;5110942;28;20126;-42
2020/12/31 10:20:28;;;;;;;9.77;6.85;;;9.30;81.70;;;;;;5112343;28;20096;-42
2020/12/31 10:22:53;;;;;;;9.68;7.55;;;9.20;81.60;;;;;;5113197;28;20088;-44
2020/12/31 10:25:19;;;;;;;9.63;7.30;;;9.20;81.60;;;;;;5113471;28;20067;-41
2020/12/31 10:27:45;;;;;;;9.13;7.38;;;9.20;81.60;;;;;;5113961;28;20048;-43
2020/12/31 10:30:10;;;;;;;9.57;7.22;;;9.20;81.60;;;;;;5113850;28;20496;-42
2020/12/31 10:32:36;;;;;;;8.75;7.22;;;9.30;81.70;;;;;;5113762;28;20043;-41
2020/12/31 10:35:02;;;;;;;9.82;7.35;;;9.30;81.70;;;;;;5112006;28;20044;-44
2020/12/31 10:37:28;;;;;;;8.05;6.55;;;9.30;81.70;;;;;;5101347;28;20040;-41
2020/12/31 10:39:54;;;;;;;7.93;6.72;;;9.20;81.60;;;;;;5093606;28;20055;-42
2020/12/31 10:42:19;;;;;;;9.75;6.80;;;9.30;81.70;;;;;;5093207;28;20044;-43
2020/12/31 10:44:45;;;;;;;8.93;6.82;;;9.20;81.60;;;;;;5094244;28;20048;-48
2020/12/31 10:47:11;;;;;;;10.55;6.80;;;9.30;81.70;;;;;;5093291;28;20040;-45
2020/12/31 10:49:37;;;;;;;8.55;6.85;;;9.30;81.70;;;;;;5095738;28;20645;-43
2020/12/31 10:52:03;;;;;;;8.63;6.25;;;9.30;81.70;;;;;;5113796;28;20126;-44
2020/12/31 10:54:29;;;;;;;8.23;6.45;;;9.30;81.70;;;;;;5109766;28;20047;-44
2020/12/31 10:56:56;;;;;;;8.52;6.30;;;9.30;81.70;;;;;;5093268;28;20048;-42
2020/12/31 10:59:22;;;;;;;10.90;6.90;;;9.30;81.70;;;;;;5092970;28;20059;-43
2020/12/31 11:01:54;;;;;;;8.52;6.53;;;9.30;81.70;;;;;;5093115;28;20067;-44
2020/12/31 11:04:20;;;;;;;8.40;6.72;;;9.30;81.70;;;;;;5092845;28;20106;-47
2020/12/31 11:06:47;;;;;;;7.88;6.20;;;9.30;81.70;;;;;;5094170;28;20048;-44
2020/12/31 11:09:13;;;;;;;8.73;6.03;;;9.30;81.70;;;;;;5092921;28;20047;-43
2020/12/31 11:11:40;;;;;;;8.27;6.45;;;9.30;81.70;;;;;;5092888;28;20044;-41
2020/12/31 11:14:06;;;;;;;7.93;6.13;;;9.30;81.70;;;;;;5090773;28;20413;-41
2020/12/31 11:16:32;;;;;;;7.60;6.00;;;9.30;81.70;;;;;;5093849;28;20044;-42
2020/12/31 11:18:58;;;;;;;7.70;6.45;;;9.30;81.70;;;;;;5101294;28;20050;-42
2020/12/31 11:21:24;;;;;;;7.28;6.15;;;9.30;81.60;;;;;;5112754;28;20048;-44
2020/12/31 11:23:50;;;;;;;8.18;6.25;;;9.30;81.60;;;;;;5113117;28;20077;-47
2020/12/31 11:26:18;;;;;;;6.95;5.72;;;9.30;81.70;;;;;;5110410;28;20074;-43
2020/12/31 11:28:46;;;;;;;8.15;5.68;;;9.30;81.70;;;;;;5099594;28;20135;-44
2020/12/31 11:31:13;;;;;;;6.88;5.85;;;9.30;81.70;;;;;;5113174;28;20134;-44
2020/12/31 11:33:40;;;;;;;6.75;5.65;;;9.30;81.70;;;;;;5112922;28;20081;-44
2020/12/31 11:36:07;;;;;;;6.60;5.40;;;9.30;81.70;;;;;;5113059;28;20043;-42
2020/12/31 11:38:33;;;;;;;8.20;6.38;;;9.30;81.60;;;;;;5104817;28;20036;-49
2020/12/31 11:40:59;;;;;;;7.47;5.57;;;9.30;81.70;;;;;;5092493;28;20412;-43
2020/12/31 11:43:24;;;;;;;8.27;6.40;;;9.30;81.70;;;;;;5109824;28;20069;-45
2020/12/31 11:45:50;;;;;;;7.90;5.88;;;9.30;81.70;;;;;;5113059;28;20522;-47
2020/12/31 11:48:16;;;;;;;7.57;5.80;;;9.30;81.60;;;;;;5112927;28;20047;-42
2020/12/31 11:50:42;;;;;;;7.55;5.95;;;9.30;82.30;;;;;;5094265;28;20048;-45
2020/12/31 11:53:07;;;;;;;7.30;6.00;;;9.30;81.60;;;;;;5097835;28;20131;-44
2020/12/31 11:55:33;;;;;;;6.97;5.43;;;9.30;81.60;;;;;;5112929;28;20122;-45
2020/12/31 11:57:59;;;;;;;7.22;5.60;;;9.30;81.60;;;;;;5113084;28;20078;-46
2020/12/31 12:00:24;;;;;;;7.65;6.00;;;9.40;81.70;;;;;;5101402;28;20044;-44
2020/12/31 12:02:50;;;;;;;6.30;5.55;;;9.30;81.60;;;;;;5093001;28;20093;-46
2020/12/31 12:05:16;;;;;;;6.63;5.25;;;9.30;81.60;;;;;;5092810;28;20063;-49
2020/12/31 12:07:41;;;;;;;6.60;5.50;;;9.30;81.60;;;;;;5093070;28;20127;-48
2020/12/31 12:10:08;;;;;;;7.63;6.15;;;9.30;81.60;;;;;;5097543;28;20080;-43
2020/12/31 12:12:33;;;;;;;7.07;6.07;;;9.30;81.60;;;;;;5096883;28;20047;-50
2020/12/31 12:14:59;;;;;;;6.38;5.07;;;9.30;81.60;;;;;;5096747;28;20036;-45
2020/12/31 12:17:25;;;;;;;6.57;5.30;;;9.30;81.60;;;;;;5097160;28;20048;-45
2020/12/31 12:19:50;;;;;;;6.78;5.18;;;9.30;81.60;;;;;;5097033;28;20044;-43
2020/12/31 12:22:16;;;;;;;6.55;5.10;;;9.30;81.60;;;;;;5097944;28;20051;-41
2020/12/31 12:24:42;;;;;;;6.90;5.43;;;9.40;81.60;;;;;;5096571;28;20048;-41
2020/12/31 12:27:08;;;;;;;8.27;5.97;;;9.30;82.20;;;;;;5096103;28;20145;-46
2020/12/31 12:29:33;;;;;;;7.15;5.50;;;9.40;81.60;;;;;;5096644;28;20055;-46
2020/12/31 12:31:59;;;;;;;6.32;5.15;;;9.30;81.50;;;;;;5097657;28;20043;-41
2020/12/31 12:34:25;;;;;;;6.75;5.22;;;9.30;81.50;;;;;;5116812;28;20054;-39
2020/12/31 12:36:51;;;;;;;7.32;5.90;;;9.30;81.60;;;;;;5117082;27;20048;-43
2020/12/31 12:39:17;;;;;;;5.75;4.95;;;9.40;81.60;;;;;;5116768;28;20066;-43
2020/12/31 12:41:43;;;;;;;7.32;5.40;;;9.40;82.20;;;;;;5114797;28;20384;-41
2020/12/31 12:44:09;;;;;;;6.75;5.47;;;9.40;81.60;;;;;;5112107;28;20044;-45
2020/12/31 12:46:35;;;;;;;6.32;4.80;;;9.40;81.60;;;;;;5115889;27;20047;-47
2020/12/31 12:49:01;;;;;;;7.07;5.32;;;9.40;81.60;;;;;;5116142;28;20507;-49
2020/12/31 12:51:34;;;;;;;7.25;5.15;;;9.40;81.60;;;;;;5116370;28;20105;-42
2020/12/31 12:54:00;;;;;;;7.25;5.45;;;9.40;81.60;;;;;;5110480;28;20040;-43
2020/12/31 12:56:26;;;;;;;6.50;4.97;;;9.40;81.50;;;;;;5115899;28;20463;-46
2020/12/31 12:58:52;;;;;;;5.97;4.88;;;9.40;81.60;;;;;;5116288;28;20040;-43